VTUW

Nakhon Phanom Airport

Thailand
TAF VTUW 170500Z 1706/1806 09005KT 9999 FEW035
Issued Valid From Valid To
Nov-17 @ 05:00 UTC
(4 hours ago)
Nov-17 @ 06:00 UTC
(3 hours ago)
Nov-18 @ 06:00 UTC
(in 21 hours)
Nov-17 @ 06:00 to Nov-18 @ 06:00
TAF VTUW 170500Z 1706/1806 09005KT 9999 FEW035
Wind Visibility Clouds
90° at 5 knots 10,000+ meters
  • Few at 3,500' AGL
TAF VTUW 170500Z 1706/1806 09005KT 9999 FEW035
Issued Nov-17 @ 05:00 UTC
(4 hours ago)
Valid From Nov-17 @ 06:00 UTC
(3 hours ago)
Valid To Nov-18 @ 06:00 UTC
(in 21 hours)
Nov-17 @ 06:00 - Nov-18 @ 06:00
Wind Visibility
90° at 5 knots 10,000+ meters
Clouds
  • Few at 3,500' AGL